Time;durP1;ratioP1;P1;durP2;ratioP2;P2;SDS_P1;SDS_P2;PMS_P1;PMS_P2;Temp;Humidity;BMP_temperature;BMP_pressure;BME280_temperature;BME280_humidity;BME280_pressure;Samples;Min_cycle;Max_cycle;Signal;HPM_P1;HPM_P2
2023/10/24 00:02:22;;;;;;;10.35;5.78;;;11.70;99.90;;;;;;20161171;29;20044;-45
2023/10/24 00:12:23;;;;;;;6.85;4.30;;;11.80;99.90;;;;;;20159475;29;20526;-43
2023/10/24 00:22:23;;;;;;;7.22;4.45;;;11.80;99.90;;;;;;20153305;29;20048;-43
2023/10/24 00:32:24;;;;;;;6.60;5.13;;;11.90;99.90;;;;;;20146116;29;20538;-43
2023/10/24 00:42:24;;;;;;;10.35;7.20;;;11.90;99.90;;;;;;20148427;29;20047;-44
2023/10/24 00:52:25;;;;;;;8.57;7.55;;;12.00;99.90;;;;;;20147738;29;20052;-43
2023/10/24 01:02:26;;;;;;;14.68;11.15;;;12.00;99.90;;;;;;20163918;29;20536;-43
2023/10/24 01:12:26;;;;;;;16.50;13.10;;;12.20;99.90;;;;;;20169353;29;20381;-43
2023/10/24 01:22:27;;;;;;;18.08;14.55;;;12.20;99.90;;;;;;20167114;29;20044;-44
2023/10/24 01:32:30;;;;;;;21.58;15.30;;;12.40;99.90;;;;;;20168028;29;20080;-43
2023/10/24 01:42:31;;;;;;;23.30;15.85;;;12.40;99.90;;;;;;20164359;29;20118;-44
2023/10/24 01:52:32;;;;;;;23.10;15.90;;;12.40;99.90;;;;;;20161777;29;20075;-43
2023/10/24 02:02:32;;;;;;;25.90;15.77;;;12.40;99.90;;;;;;20144169;29;20731;-43
2023/10/24 02:12:34;;;;;;;23.25;15.85;;;12.40;99.90;;;;;;20169119;29;20303;-43
2023/10/24 02:22:35;;;;;;;23.08;15.07;;;12.40;99.90;;;;;;20168840;29;20232;-44
2023/10/24 02:32:35;;;;;;;22.88;15.25;;;12.40;99.90;;;;;;20166851;29;20053;-43
2023/10/24 02:42:36;;;;;;;23.38;17.10;;;12.40;99.90;;;;;;20167167;29;20509;-43
2023/10/24 02:52:38;;;;;;;23.65;16.42;;;12.40;99.90;;;;;;20152225;29;20084;-43
2023/10/24 03:02:38;;;;;;;21.50;15.10;;;12.20;99.90;;;;;;20151506;29;20556;-44
2023/10/24 03:12:39;;;;;;;22.73;15.97;;;12.30;99.90;;;;;;20158672;29;20951;-42
2023/10/24 03:22:40;;;;;;;26.25;17.65;;;12.20;99.90;;;;;;20163265;29;20480;-43
2023/10/24 03:32:41;;;;;;;26.90;18.60;;;12.20;99.90;;;;;;20182545;29;20067;-44
2023/10/24 03:42:41;;;;;;;30.63;20.07;;;12.10;99.90;;;;;;20182687;29;20055;-43
2023/10/24 03:52:42;;;;;;;31.70;20.10;;;12.10;99.90;;;;;;20179564;29;20474;-43
2023/10/24 04:02:43;;;;;;;28.45;18.55;;;12.10;99.90;;;;;;20184675;29;20047;-42
2023/10/24 04:12:43;;;;;;;25.70;17.30;;;12.10;99.90;;;;;;20184152;29;20053;-44
2023/10/24 04:22:46;;;;;;;23.77;16.47;;;12.00;99.90;;;;;;20178302;29;20394;-44
2023/10/24 04:32:47;;;;;;;22.75;16.60;;;12.00;99.90;;;;;;20175277;29;20477;-43
2023/10/24 04:42:50;;;;;;;24.20;17.23;;;12.00;99.90;;;;;;20178302;29;20446;-45
2023/10/24 04:52:51;;;;;;;24.65;16.00;;;12.00;99.90;;;;;;20172803;29;20056;-44
2023/10/24 05:02:53;;;;;;;24.67;16.58;;;12.00;99.90;;;;;;20172450;29;20036;-43
2023/10/24 05:12:53;;;;;;;26.20;17.85;;;12.00;99.90;;;;;;20178775;29;20131;-44
2023/10/24 05:22:54;;;;;;;25.63;17.35;;;11.90;99.90;;;;;;20172940;29;20104;-44
2023/10/24 05:32:55;;;;;;;24.08;16.48;;;11.90;99.90;;;;;;20165317;29;20053;-43
2023/10/24 05:42:56;;;;;;;24.33;17.60;;;11.90;99.90;;;;;;20160436;29;20370;-44
2023/10/24 05:52:56;;;;;;;22.13;16.30;;;11.80;99.90;;;;;;20158619;29;20421;-43
2023/10/24 06:02:57;;;;;;;22.10;15.70;;;11.60;99.90;;;;;;20157538;29;20533;-44
2023/10/24 06:12:57;;;;;;;23.88;17.15;;;11.70;99.90;;;;;;20171451;29;21117;-44
2023/10/24 06:22:58;;;;;;;21.33;15.95;;;11.80;99.90;;;;;;20176005;29;20048;-44
2023/10/24 06:32:59;;;;;;;20.73;15.00;;;11.70;99.90;;;;;;20171815;29;20053;-44
2023/10/24 06:43:02;;;;;;;20.48;14.75;;;11.70;99.90;;;;;;20175384;29;20060;-43
2023/10/24 06:53:02;;;;;;;20.85;14.73;;;11.60;99.90;;;;;;20177102;29;20089;-44
2023/10/24 07:03:04;;;;;;;17.85;12.82;;;11.70;99.90;;;;;;20181345;29;20056;-43
2023/10/24 07:13:04;;;;;;;41.03;19.58;;;11.60;99.90;;;;;;20181980;29;20088;-44
2023/10/24 07:23:05;;;;;;;29.38;20.15;;;11.70;99.90;;;;;;20177014;29;20044;-44
2023/10/24 07:33:06;;;;;;;22.38;15.13;;;11.60;99.90;;;;;;20173942;29;20068;-43
2023/10/24 07:43:07;;;;;;;21.38;15.25;;;11.60;99.90;;;;;;20181638;29;20470;-44
2023/10/24 07:53:07;;;;;;;24.13;16.33;;;11.80;99.90;;;;;;20172337;29;20048;-44
2023/10/24 08:03:09;;;;;;;24.77;17.25;;;11.80;99.90;;;;;;20180472;29;20591;-43
2023/10/24 08:13:09;;;;;;;25.02;18.23;;;11.90;99.90;;;;;;20166190;29;20342;-44
2023/10/24 08:23:10;;;;;;;26.85;17.70;;;12.00;99.90;;;;;;20180883;29;20040;-43
2023/10/24 08:33:10;;;;;;;25.65;18.52;;;12.10;99.90;;;;;;20179709;29;20366;-43
2023/10/24 08:43:11;;;;;;;24.65;18.27;;;12.20;99.90;;;;;;20178734;29;20524;-42
2023/10/24 08:53:13;;;;;;;25.13;18.30;;;12.30;99.90;;;;;;20173288;29;20044;-43
2023/10/24 09:03:18;;;;;;;21.17;16.05;;;12.60;99.90;;;;;;20178782;29;20048;-43
2023/10/24 09:13:18;;;;;;;21.50;15.38;;;12.60;94.00;;;;;;20175954;29;20527;-44
2023/10/24 09:23:20;;;;;;;20.25;16.08;;;12.60;89.70;;;;;;20182855;29;20048;-43
2023/10/24 09:33:21;;;;;;;17.77;12.88;;;12.70;77.00;;;;;;20184022;29;20048;-42
2023/10/24 09:43:23;;;;;;;17.23;12.73;;;12.80;51.30;;;;;;20178594;29;20096;-42
2023/10/24 09:53:24;;;;;;;16.80;12.57;;;12.80;69.20;;;;;;20175873;29;20135;-42
2023/10/24 10:03:25;;;;;;;14.88;10.52;;;12.80;56.10;;;;;;20179254;29;20079;-43
2023/10/24 10:13:30;;;;;;;14.52;10.00;;;13.00;38.70;;;;;;20180890;29;20080;-44
2023/10/24 10:23:55;;;;;;;17.40;12.52;;;12.90;29.50;;;;;;20175729;29;20049;-43
2023/10/24 10:33:56;;;;;;;17.52;13.25;;;13.00;38.00;;;;;;20196289;29;20045;-43
2023/10/24 10:44:01;;;;;;;18.33;14.93;;;13.00;30.00;;;;;;20199419;29;20056;-44
2023/10/24 10:54:27;;;;;;;16.17;13.30;;;13.00;36.40;;;;;;20201415;29;20080;-43
2023/10/24 11:04:28;;;;;;;17.92;14.38;;;12.90;42.80;;;;;;20170290;29;20090;-43
2023/10/24 11:14:29;;;;;;;23.85;16.02;;;12.90;43.60;;;;;;20185494;29;20531;-43
2023/10/24 11:24:29;;;;;;;16.42;12.45;;;13.00;48.40;;;;;;20189209;29;20048;-43
2023/10/24 11:34:30;;;;;;;17.85;11.82;;;13.00;35.30;;;;;;20199408;29;20041;-43
2023/10/24 11:44:30;;;;;;;19.88;12.27;;;13.10;29.60;;;;;;20199855;29;20044;-43
2023/10/24 11:54:31;;;;;;;8.38;6.88;;;13.00;32.10;;;;;;20193146;29;20045;-43
2023/10/24 12:04:32;;;;;;;13.80;9.95;;;13.00;28.70;;;;;;20180490;29;20053;-43
2023/10/24 12:14:37;;;;;;;8.70;6.50;;;12.70;66.30;;;;;;20177631;29;20049;-42
2023/10/24 12:24:37;;;;;;;10.18;7.20;;;12.40;99.90;;;;;;20176959;29;20608;-43
2023/10/24 12:34:38;;;;;;;8.07;4.90;;;12.20;99.90;;;;;;20180462;29;20049;-43
2023/10/24 12:44:38;;;;;;;6.65;5.07;;;12.10;99.90;;;;;;20174002;29;20033;-43
2023/10/24 12:54:39;;;;;;;7.32;3.88;;;12.00;99.90;;;;;;20173393;29;20397;-43
2023/10/24 13:04:41;;;;;;;4.77;3.30;;;12.00;99.90;;;;;;20174775;29;20124;-43
2023/10/24 13:14:42;;;;;;;4.90;2.70;;;12.10;99.90;;;;;;20171904;29;20456;-43
2023/10/24 13:24:43;;;;;;;4.03;2.50;;;12.10;99.90;;;;;;20174676;29;20053;-44
2023/10/24 13:34:44;;;;;;;5.47;2.80;;;12.00;99.90;;;;;;20178124;29;20687;-43
2023/10/24 13:44:44;;;;;;;4.57;3.10;;;12.00;99.90;;;;;;20177716;29;20097;-42
2023/10/24 13:54:46;;;;;;;5.80;3.70;;;12.00;99.90;;;;;;20171041;29;20056;-42
2023/10/24 14:04:47;;;;;;;6.80;3.38;;;12.00;99.90;;;;;;20169360;29;20471;-43
2023/10/24 14:14:47;;;;;;;5.25;3.78;;;11.90;99.90;;;;;;20158336;29;20068;-42
2023/10/24 14:24:48;;;;;;;5.68;3.50;;;11.90;99.90;;;;;;20175283;29;20204;-43
2023/10/24 14:34:49;;;;;;;5.47;3.95;;;11.90;99.90;;;;;;20171041;29;20441;-43
2023/10/24 14:44:49;;;;;;;9.93;5.20;;;12.10;99.90;;;;;;20171542;29;20724;-44
2023/10/24 14:54:50;;;;;;;8.50;4.85;;;12.50;99.90;;;;;;20165895;29;20092;-43
2023/10/24 15:04:50;;;;;;;7.30;4.78;;;12.70;99.90;;;;;;20164494;29;21486;-43
2023/10/24 15:14:51;;;;;;;9.13;5.07;;;12.70;99.90;;;;;;20162875;29;20045;-44
2023/10/24 15:24:51;;;;;;;7.22;4.10;;;12.80;99.90;;;;;;20182030;29;20037;-44
2023/10/24 15:34:52;;;;;;;3.30;1.50;;;12.80;99.90;;;;;;20185973;29;20121;-43
2023/10/24 15:44:56;;;;;;;2.78;0.85;;;12.90;92.60;;;;;;20181539;29;20543;-44
2023/10/24 15:54:57;;;;;;;3.83;1.00;;;13.20;14.20;;;;;;20179061;29;20048;-44
2023/10/24 16:04:57;;;;;;;2.60;0.63;;;13.00;4.80;;;;;;20181693;29;20048;-44
2023/10/24 16:14:58;;;;;;;2.25;0.55;;;12.80;6.60;;;;;;20185111;29;20092;-43
2023/10/24 16:24:58;;;;;;;2.25;0.80;;;12.60;14.40;;;;;;20171514;29;22427;-43
2023/10/24 16:34:59;;;;;;;4.38;0.85;;;12.40;24.30;;;;;;20163436;29;20057;-43
2023/10/24 16:45:00;;;;;;;5.22;0.80;;;12.20;34.80;;;;;;20180677;29;20413;-44
2023/10/24 16:55:00;;;;;;;4.38;0.90;;;12.20;60.70;;;;;;20170042;29;20516;-44
2023/10/24 17:05:02;;;;;;;17.83;7.38;;;12.10;58.60;;;;;;20165812;29;20119;-43
2023/10/24 17:15:05;;;;;;;3.97;1.60;;;12.10;60.10;;;;;;20168919;29;20056;-43
2023/10/24 17:25:06;;;;;;;7.00;1.60;;;12.20;47.40;;;;;;20157159;29;20040;-44
2023/10/24 17:35:06;;;;;;;3.55;1.08;;;12.20;37.40;;;;;;20162441;29;20044;-44
2023/10/24 17:45:07;;;;;;;7.32;1.48;;;12.40;24.90;;;;;;20120833;29;20051;-43
2023/10/24 17:55:08;;;;;;;6.03;1.80;;;12.30;28.80;;;;;;20147223;29;20112;-43
2023/10/24 18:05:09;;;;;;;5.55;1.90;;;12.30;21.40;;;;;;20172872;29;20098;-43
2023/10/24 18:15:12;;;;;;;7.40;1.33;;;12.20;14.10;;;;;;20187598;29;20160;-43
2023/10/24 18:25:12;;;;;;;13.63;3.60;;;12.10;23.80;;;;;;20178904;29;20037;-44
2023/10/24 18:35:13;;;;;;;6.95;1.35;;;12.00;25.10;;;;;;20162728;29;20060;-43
2023/10/24 18:45:13;;;;;;;6.70;1.67;;;11.90;28.10;;;;;;20154793;29;20108;-43
2023/10/24 18:55:14;;;;;;;5.38;1.92;;;11.90;41.00;;;;;;20124069;29;20053;-43
2023/10/24 19:05:14;;;;;;;5.75;2.25;;;11.90;44.90;;;;;;20175665;29;20041;-42
2023/10/24 19:15:16;;;;;;;5.10;2.45;;;11.80;42.30;;;;;;20175818;29;20646;-43
2023/10/24 19:25:17;;;;;;;6.30;2.00;;;11.80;56.20;;;;;;20168979;29;20070;-43
2023/10/24 19:35:19;;;;;;;9.90;2.35;;;11.80;58.10;;;;;;20162452;29;21314;-43
2023/10/24 19:45:20;;;;;;;8.80;2.85;;;11.70;81.80;;;;;;20151290;29;20045;-43
2023/10/24 19:55:22;;;;;;;4.28;2.00;;;11.80;79.00;;;;;;20156725;29;20056;-43
2023/10/24 20:05:23;;;;;;;10.45;2.40;;;11.70;65.00;;;;;;20152981;29;20119;-43
2023/10/24 20:15:24;;;;;;;12.05;2.80;;;11.60;71.80;;;;;;20154757;29;20049;-43
2023/10/24 20:25:24;;;;;;;5.03;2.47;;;11.50;81.30;;;;;;20144265;29;20052;-43
2023/10/24 20:35:28;;;;;;;8.82;3.15;;;11.50;59.70;;;;;;20152914;29;20443;-43
2023/10/24 20:45:28;;;;;;;6.97;3.17;;;11.40;65.30;;;;;;20177569;29;20127;-44
2023/10/24 20:55:29;;;;;;;10.65;3.03;;;11.30;61.30;;;;;;20169097;29;20536;-43
2023/10/24 21:05:29;;;;;;;6.32;2.70;;;11.20;65.10;;;;;;20132655;29;20049;-43
2023/10/24 21:15:30;;;;;;;5.20;2.47;;;11.20;57.70;;;;;;20156630;29;20052;-43
2023/10/24 21:25:32;;;;;;;11.00;2.85;;;11.10;52.40;;;;;;20163174;29;20352;-42
2023/10/24 21:35:38;;;;;;;5.97;2.58;;;11.00;52.10;;;;;;20155306;29;20149;-43
2023/10/24 21:45:38;;;;;;;5.40;2.55;;;11.00;40.80;;;;;;20164304;29;20064;-43
2023/10/24 21:55:39;;;;;;;7.43;2.53;;;10.80;55.40;;;;;;20166833;29;20480;-44
2023/10/24 22:05:39;;;;;;;6.68;2.55;;;10.70;53.20;;;;;;20158752;29;20053;-43
2023/10/24 22:15:40;;;;;;;7.88;3.00;;;10.60;56.10;;;;;;20143326;29;20071;-43
2023/10/24 22:25:40;;;;;;;7.55;3.05;;;10.50;52.90;;;;;;20170823;29;20585;-43
2023/10/24 22:35:41;;;;;;;9.32;2.78;;;10.50;64.60;;;;;;20166913;29;20179;-43
2023/10/24 22:45:42;;;;;;;6.68;2.65;;;10.50;69.40;;;;;;20171671;29;20165;-43
2023/10/24 22:55:42;;;;;;;4.53;2.30;;;10.50;56.40;;;;;;20168102;29;20500;-43
2023/10/24 23:05:43;;;;;;;6.70;2.60;;;10.40;72.20;;;;;;20154224;29;20491;-44
2023/10/24 23:15:43;;;;;;;4.53;2.63;;;10.30;89.50;;;;;;20166883;29;20555;-43
2023/10/24 23:25:45;;;;;;;8.35;3.03;;;10.40;77.20;;;;;;20162554;29;20052;-43
2023/10/24 23:35:45;;;;;;;10.93;4.40;;;10.50;71.60;;;;;;20165577;29;20567;-43
2023/10/24 23:45:46;;;;;;;9.70;4.55;;;10.40;68.40;;;;;;20170658;29;20334;-43
2023/10/24 23:55:46;;;;;;;10.63;5.50;;;10.40;63.50;;;;;;20151048;29;20064;-43
